Time;durP1;ratioP1;P1;durP2;ratioP2;P2;SDS_P1;SDS_P2;PMS_P1;PMS_P2;Temp;Humidity;BMP_temperature;BMP_pressure;BME280_temperature;BME280_humidity;BME280_pressure;Samples;Min_cycle;Max_cycle;Signal;HPM_P1;HPM_P2
2022/09/19 00:01:15;;;;;;;3.80;1.10;;;10.30;99.90;;;;;;4903652;29;20614;-92
2022/09/19 00:03:44;;;;;;;5.07;1.55;;;10.30;99.90;;;;;;4904941;29;20210;-92
2022/09/19 00:06:12;;;;;;;2.33;1.27;;;10.30;99.90;;;;;;4903075;29;20596;-91
2022/09/19 00:08:39;;;;;;;2.05;1.40;;;10.40;99.90;;;;;;4903875;29;20189;-89
2022/09/19 00:11:06;;;;;;;3.13;1.52;;;10.30;99.90;;;;;;4904520;29;20186;-85
2022/09/19 00:13:34;;;;;;;3.33;1.48;;;10.30;99.90;;;;;;4903580;29;20187;-90
2022/09/19 00:16:00;;;;;;;4.50;1.53;;;10.40;99.90;;;;;;4902853;29;20217;-87
2022/09/19 00:18:27;;;;;;;2.92;1.30;;;10.40;99.90;;;;;;4921573;29;20230;-92
2022/09/19 00:20:55;;;;;;;2.63;1.15;;;10.40;99.90;;;;;;4920469;29;20216;-88
2022/09/19 00:26:09;;;;;;;7.78;1.70;;;10.30;99.90;;;;;;4921864;29;20258;-89
2022/09/19 00:28:37;;;;;;;1.83;1.23;;;10.30;99.90;;;;;;4904761;29;20186;-88
2022/09/19 00:31:04;;;;;;;3.60;1.48;;;10.30;99.90;;;;;;4902349;29;20177;-90
2022/09/19 00:33:32;;;;;;;2.30;1.52;;;10.30;99.90;;;;;;4903634;29;20198;-89
2022/09/19 00:36:04;;;;;;;2.78;1.23;;;10.30;99.90;;;;;;4903847;29;20179;-89
2022/09/19 00:38:31;;;;;;;3.80;1.20;;;10.40;99.90;;;;;;4904629;29;20174;-87
2022/09/19 00:40:57;;;;;;;5.78;1.40;;;10.30;99.90;;;;;;4904637;29;20614;-91
2022/09/19 00:43:42;;;;;;;6.40;1.50;;;10.40;99.90;;;;;;4903996;29;20214;-90
2022/09/19 00:46:09;;;;;;;3.42;1.65;;;10.40;99.90;;;;;;4903781;29;20174;-91
2022/09/19 00:48:41;;;;;;;6.35;1.65;;;10.40;99.90;;;;;;4903173;29;20182;-92
2022/09/19 00:51:12;;;;;;;2.15;1.30;;;10.40;99.90;;;;;;4919231;29;20617;-91
2022/09/19 00:53:38;;;;;;;2.35;1.40;;;10.40;99.90;;;;;;4902685;29;20181;-89
2022/09/19 00:56:05;;;;;;;4.45;1.02;;;10.40;99.90;;;;;;4901841;29;20273;-89
2022/09/19 00:58:34;;;;;;;4.40;1.30;;;10.40;99.90;;;;;;4919594;29;20230;-88
2022/09/19 01:01:00;;;;;;;4.78;1.42;;;10.40;99.90;;;;;;4920695;29;20193;-86
2022/09/19 01:03:28;;;;;;;1.50;1.23;;;10.40;99.90;;;;;;4920323;29;20221;-86
2022/09/19 01:06:06;;;;;;;4.15;1.25;;;10.50;99.90;;;;;;4921415;29;20174;-88
2022/09/19 01:09:05;;;;;;;1.50;1.40;;;10.50;99.90;;;;;;4920590;29;20260;-96
2022/09/19 01:11:49;;;;;;;3.13;1.30;;;10.40;99.90;;;;;;4937619;29;20172;-86
2022/09/19 01:14:25;;;;;;;2.83;1.20;;;10.40;99.90;;;;;;4937379;29;20244;-88
2022/09/19 01:16:56;;;;;;;2.83;1.13;;;10.40;99.90;;;;;;4937956;29;20166;-87
2022/09/19 01:19:57;;;;;;;2.10;1.20;;;10.30;99.90;;;;;;4920854;29;20260;-86
2022/09/19 01:22:45;;;;;;;3.72;1.40;;;10.40;99.90;;;;;;4920157;29;20260;-91
2022/09/19 01:25:45;;;;;;;2.90;1.20;;;10.40;99.90;;;;;;4920427;29;20194;-87
2022/09/19 01:28:21;;;;;;;1.88;0.90;;;10.40;99.90;;;;;;4921924;29;20610;-85
2022/09/19 01:31:20;;;;;;;1.30;0.88;;;10.40;99.90;;;;;;4924181;29;20227;-90
2022/09/19 01:34:12;;;;;;;0.80;0.70;;;10.40;99.90;;;;;;4940979;29;20594;-86
2022/09/19 01:37:12;;;;;;;1.98;1.10;;;10.40;99.90;;;;;;4933811;29;20633;-88
2022/09/19 01:39:41;;;;;;;1.02;0.93;;;10.30;99.90;;;;;;4938301;29;20202;-87
2022/09/19 01:42:11;;;;;;;2.10;0.90;;;10.30;99.90;;;;;;4923924;29;20174;-93
2022/09/19 01:44:38;;;;;;;3.78;0.90;;;10.30;99.90;;;;;;4940325;29;20522;-93
2022/09/19 01:47:41;;;;;;;1.00;0.60;;;10.30;99.90;;;;;;4941054;29;20245;-85
2022/09/19 01:50:59;;;;;;;3.28;1.15;;;10.40;99.90;;;;;;4940832;29;20170;-87
2022/09/19 01:53:47;;;;;;;2.45;1.20;;;10.40;99.90;;;;;;4890670;29;20284;-90
2022/09/19 01:56:39;;;;;;;1.65;0.80;;;10.30;99.90;;;;;;4940675;29;20177;-94
2022/09/19 01:59:23;;;;;;;2.83;0.88;;;10.30;99.90;;;;;;4904255;29;20202;-87
2022/09/19 02:02:10;;;;;;;2.72;0.85;;;10.20;99.90;;;;;;4906397;29;20258;-91
2022/09/19 02:04:45;;;;;;;2.55;0.73;;;10.20;99.90;;;;;;4940042;29;20547;-90
2022/09/19 02:07:20;;;;;;;1.80;0.60;;;10.20;99.90;;;;;;4922996;29;20182;-88
2022/09/19 02:10:00;;;;;;;0.98;0.68;;;10.00;99.90;;;;;;4923360;29;20185;-91
2022/09/19 02:15:16;;;;;;;1.55;0.57;;;10.00;99.90;;;;;;5256690;23;20295;-87
2022/09/19 02:17:55;;;;;;;2.08;0.80;;;10.00;99.90;;;;;;4901513;29;20186;-87
2022/09/19 02:20:31;;;;;;;2.30;0.70;;;10.00;99.90;;;;;;4918483;29;20155;-88
2022/09/19 02:23:10;;;;;;;2.25;0.50;;;10.00;99.90;;;;;;4901280;29;20198;-88
2022/09/19 02:25:36;;;;;;;1.88;0.50;;;10.00;99.90;;;;;;4901046;29;20690;-87
2022/09/19 02:28:18;;;;;;;4.97;0.60;;;10.00;99.90;;;;;;4901149;29;20179;-87
2022/09/19 02:30:44;;;;;;;0.73;0.60;;;10.10;99.90;;;;;;4901349;29;20647;-87
2022/09/19 02:33:11;;;;;;;1.48;0.47;;;10.10;99.90;;;;;;4901407;29;20584;-87
2022/09/19 02:35:44;;;;;;;1.67;0.60;;;10.10;99.90;;;;;;4900726;29;20301;-87
2022/09/19 02:38:34;;;;;;;0.68;0.50;;;10.10;99.90;;;;;;4900698;29;20662;-88
2022/09/19 02:41:24;;;;;;;2.67;0.77;;;10.10;99.90;;;;;;4900883;29;20511;-87
2022/09/19 02:44:14;;;;;;;1.20;0.50;;;10.10;99.90;;;;;;4900109;29;20222;-87
2022/09/19 02:47:11;;;;;;;2.80;0.40;;;10.10;99.90;;;;;;4901018;29;20642;-88
2022/09/19 02:50:02;;;;;;;1.80;0.52;;;10.00;99.90;;;;;;4900731;29;20198;-87
2022/09/19 02:52:33;;;;;;;2.13;0.65;;;10.00;99.90;;;;;;4900831;29;20182;-87
2022/09/19 02:55:15;;;;;;;1.75;0.40;;;10.10;99.90;;;;;;4900566;29;20210;-86
2022/09/19 02:57:46;;;;;;;1.08;0.60;;;10.10;99.90;;;;;;4900391;29;20205;-87
2022/09/19 03:00:14;;;;;;;2.05;0.60;;;10.00;99.90;;;;;;4900357;29;20623;-86
2022/09/19 03:04:11;;;;;;;1.08;0.50;;;10.00;99.90;;;;;;4900421;29;20198;-87
2022/09/19 03:05:53;;;;;;;4.40;0.70;;;10.00;99.90;;;;;;4917023;29;20201;-87
2022/09/19 03:08:24;;;;;;;1.67;0.55;;;9.90;99.90;;;;;;4917474;29;20214;-87
2022/09/19 03:10:54;;;;;;;1.92;0.70;;;9.90;99.90;;;;;;4900281;29;20646;-87
2022/09/19 03:13:24;;;;;;;2.40;0.60;;;9.80;99.90;;;;;;4900430;29;20171;-89
2022/09/19 03:16:12;;;;;;;1.92;0.70;;;9.80;99.90;;;;;;4882464;29;20246;-87
2022/09/19 03:18:40;;;;;;;1.73;0.63;;;9.80;99.90;;;;;;4881433;29;20660;-87
2022/09/19 03:21:09;;;;;;;1.95;0.68;;;9.80;99.90;;;;;;4881296;29;20186;-86
2022/09/19 03:23:47;;;;;;;4.43;0.90;;;9.80;99.90;;;;;;4881363;29;20203;-88
2022/09/19 03:26:18;;;;;;;2.30;0.77;;;9.80;99.90;;;;;;4896901;29;20203;-87
2022/09/19 03:28:44;;;;;;;1.58;0.68;;;9.80;99.90;;;;;;4881003;29;20186;-88
2022/09/19 03:31:10;;;;;;;3.60;0.88;;;9.70;99.90;;;;;;4881452;29;20179;-87
2022/09/19 03:33:35;;;;;;;4.05;0.95;;;9.70;99.90;;;;;;4881021;29;20195;-87
2022/09/19 03:36:07;;;;;;;2.72;1.08;;;9.70;99.90;;;;;;4897500;29;20203;-88
2022/09/19 03:38:45;;;;;;;1.42;1.10;;;9.70;99.90;;;;;;4881099;29;20702;-88
2022/09/19 03:41:17;;;;;;;3.28;0.95;;;9.70;99.90;;;;;;4881144;29;20179;-88
2022/09/19 03:43:43;;;;;;;2.08;0.80;;;9.80;99.90;;;;;;4882587;29;20203;-87
2022/09/19 03:46:15;;;;;;;3.20;1.15;;;9.70;99.90;;;;;;4918212;29;20201;-88
2022/09/19 03:48:44;;;;;;;8.15;1.30;;;9.70;99.90;;;;;;4918404;29;20170;-88
2022/09/19 03:51:11;;;;;;;6.22;1.00;;;9.70;99.90;;;;;;4917565;29;20671;-88
2022/09/19 03:53:37;;;;;;;5.88;1.20;;;9.70;99.90;;;;;;4917985;29;20225;-87
2022/09/19 03:56:03;;;;;;;3.50;1.10;;;9.60;99.90;;;;;;4918372;29;20197;-87
2022/09/19 03:58:30;;;;;;;5.72;1.48;;;9.60;99.90;;;;;;4918010;29;20178;-88
2022/09/19 04:00:59;;;;;;;2.20;1.27;;;9.60;99.90;;;;;;4918347;29;20189;-87
2022/09/19 04:03:25;;;;;;;2.97;1.70;;;9.60;99.90;;;;;;4918211;29;20217;-87
2022/09/19 04:05:51;;;;;;;3.67;1.80;;;9.60;99.90;;;;;;4918095;29;20568;-87
2022/09/19 04:08:18;;;;;;;3.15;1.80;;;9.60;99.90;;;;;;4918399;29;20181;-88
2022/09/19 04:10:44;;;;;;;3.35;2.00;;;9.70;99.90;;;;;;4935221;29;20170;-88
2022/09/19 04:13:13;;;;;;;5.03;2.20;;;9.70;99.90;;;;;;4918020;29;20180;-87
2022/09/19 04:15:40;;;;;;;4.20;2.60;;;9.70;99.90;;;;;;4901604;29;20245;-88
2022/09/19 04:18:06;;;;;;;6.40;2.65;;;9.70;99.90;;;;;;4898780;29;20673;-86
2022/09/19 04:20:33;;;;;;;4.97;2.83;;;9.70;99.90;;;;;;4899156;29;20204;-89
2022/09/19 04:23:00;;;;;;;6.47;3.33;;;9.80;99.90;;;;;;4899332;29;20230;-86
2022/09/19 04:25:35;;;;;;;4.40;2.80;;;9.80;99.90;;;;;;4899080;29;20214;-87
2022/09/19 04:28:08;;;;;;;5.97;3.28;;;9.80;99.90;;;;;;4899258;29;20226;-87
2022/09/19 04:30:35;;;;;;;3.50;3.10;;;9.80;99.90;;;;;;4916173;29;20220;-88
2022/09/19 04:33:02;;;;;;;6.85;3.70;;;9.80;99.90;;;;;;4899156;29;20179;-89
2022/09/19 04:35:30;;;;;;;6.65;4.07;;;9.90;99.90;;;;;;4899245;29;20209;-88
2022/09/19 04:37:55;;;;;;;8.95;3.10;;;9.90;99.90;;;;;;4899066;29;20178;-88
2022/09/19 04:40:21;;;;;;;4.65;3.22;;;9.90;99.90;;;;;;4898934;29;20175;-87
2022/09/19 04:42:48;;;;;;;4.35;3.45;;;9.90;99.90;;;;;;4915444;29;20727;-87
2022/09/19 04:45:20;;;;;;;5.13;3.22;;;9.90;99.90;;;;;;4898929;29;20210;-88
2022/09/19 04:47:47;;;;;;;9.00;4.03;;;9.90;99.90;;;;;;4898610;29;20604;-87
2022/09/19 04:50:14;;;;;;;5.93;3.45;;;9.80;99.90;;;;;;4898820;29;20187;-87
2022/09/19 04:52:40;;;;;;;7.15;3.45;;;9.90;99.90;;;;;;4898784;29;20258;-87
2022/09/19 04:55:07;;;;;;;8.05;3.10;;;9.90;99.90;;;;;;4898577;29;20199;-88
2022/09/19 04:57:33;;;;;;;4.95;3.00;;;9.80;99.90;;;;;;4899200;29;20278;-87
2022/09/19 04:59:58;;;;;;;5.40;3.08;;;9.80;99.90;;;;;;4898717;29;20336;-87
2022/09/19 05:02:29;;;;;;;3.75;3.22;;;9.80;99.90;;;;;;4901154;29;20606;-87
2022/09/19 05:04:55;;;;;;;8.32;3.58;;;9.90;99.90;;;;;;4902403;29;20202;-89
2022/09/19 05:07:28;;;;;;;7.83;2.90;;;9.90;99.90;;;;;;4919123;29;20163;-88
2022/09/19 05:09:54;;;;;;;8.75;2.75;;;9.90;99.90;;;;;;4902419;29;20174;-89
2022/09/19 05:12:20;;;;;;;7.07;2.78;;;9.90;99.90;;;;;;4902115;29;20322;-88
2022/09/19 05:14:46;;;;;;;6.32;2.70;;;9.90;99.90;;;;;;4892880;29;20715;-87
2022/09/19 05:17:12;;;;;;;6.18;2.60;;;9.90;99.90;;;;;;4883695;29;20183;-87
2022/09/19 05:19:38;;;;;;;4.20;2.70;;;9.80;99.90;;;;;;4900510;29;20549;-87
2022/09/19 05:22:04;;;;;;;4.28;2.40;;;9.80;99.90;;;;;;4900254;29;20637;-88
2022/09/19 05:24:30;;;;;;;5.22;2.42;;;9.80;99.90;;;;;;4883441;29;20229;-88
2022/09/19 05:26:56;;;;;;;5.07;2.40;;;9.80;99.90;;;;;;4883614;29;20632;-88
2022/09/19 05:29:22;;;;;;;2.70;2.00;;;9.90;99.90;;;;;;4900254;29;20164;-87
2022/09/19 05:31:48;;;;;;;8.25;2.30;;;9.80;99.90;;;;;;4883489;29;20187;-87
2022/09/19 05:34:14;;;;;;;2.40;2.05;;;9.90;99.90;;;;;;4883098;29;20646;-89
2022/09/19 05:36:41;;;;;;;6.50;2.10;;;9.90;99.90;;;;;;4883304;29;20187;-88
2022/09/19 05:39:07;;;;;;;3.72;2.22;;;9.90;99.90;;;;;;4883321;29;20190;-87
2022/09/19 05:41:35;;;;;;;6.82;2.45;;;9.90;99.90;;;;;;4883320;29;20187;-86
2022/09/19 05:44:04;;;;;;;10.02;2.53;;;9.90;99.90;;;;;;4889466;29;20206;-87
2022/09/19 05:46:29;;;;;;;4.53;2.30;;;9.90;99.90;;;;;;4920655;29;20181;-88
2022/09/19 05:48:55;;;;;;;4.20;2.10;;;9.80;99.90;;;;;;4920814;29;20174;-88
2022/09/19 05:51:21;;;;;;;5.95;2.10;;;9.90;99.90;;;;;;4920553;29;20181;-87
2022/09/19 05:53:52;;;;;;;4.90;2.10;;;9.90;99.90;;;;;;4937863;29;20190;-87
2022/09/19 05:56:19;;;;;;;7.65;2.58;;;9.90;99.90;;;;;;4920108;29;20229;-87
2022/09/19 05:58:45;;;;;;;9.90;2.15;;;9.90;99.90;;;;;;4920267;29;20212;-88
2022/09/19 06:01:14;;;;;;;5.70;2.03;;;9.90;99.90;;;;;;4920218;29;20241;-87
2022/09/19 06:03:40;;;;;;;7.10;2.17;;;9.90;99.90;;;;;;4920309;29;20213;-88
2022/09/19 06:06:13;;;;;;;3.30;1.75;;;10.00;99.90;;;;;;4937525;29;20190;-88
2022/09/19 06:08:42;;;;;;;4.90;1.50;;;10.00;99.90;;;;;;4920493;29;20246;-88
2022/09/19 06:11:09;;;;;;;8.98;1.77;;;10.10;99.90;;;;;;4920251;29;20174;-87
2022/09/19 06:16:19;;;;;;;4.00;1.80;;;10.10;99.90;;;;;;4899603;29;20263;-88
2022/09/19 06:18:45;;;;;;;4.97;1.52;;;10.10;99.90;;;;;;4899487;29;20664;-88
2022/09/19 06:21:17;;;;;;;4.85;1.80;;;10.10;99.90;;;;;;4899346;29;20156;-88
2022/09/19 06:23:43;;;;;;;3.22;1.60;;;10.20;99.90;;;;;;4882280;29;20256;-88
2022/09/19 06:26:11;;;;;;;9.07;1.75;;;10.20;99.90;;;;;;4897782;29;20203;-88
2022/09/19 06:28:37;;;;;;;7.10;1.90;;;10.20;99.90;;;;;;4882781;29;20603;-87
2022/09/19 06:31:04;;;;;;;7.22;1.42;;;10.30;99.90;;;;;;4882270;29;20274;-87
2022/09/19 06:33:31;;;;;;;4.07;1.50;;;10.30;99.90;;;;;;4898833;29;20171;-88
2022/09/19 06:35:58;;;;;;;5.28;1.77;;;10.30;99.90;;;;;;4882297;29;20634;-88
2022/09/19 06:38:24;;;;;;;4.47;1.65;;;10.40;99.90;;;;;;4898701;29;20176;-87
2022/09/19 06:40:51;;;;;;;6.90;1.70;;;10.40;99.90;;;;;;4882365;29;20195;-88
2022/09/19 06:43:21;;;;;;;4.85;1.60;;;10.40;99.90;;;;;;4882141;29;20264;-86
2022/09/19 06:45:47;;;;;;;6.70;1.70;;;10.40;99.90;;;;;;4898519;29;20198;-87
2022/09/19 06:48:13;;;;;;;4.03;1.50;;;10.50;99.90;;;;;;4882034;29;20171;-88
2022/09/19 06:50:43;;;;;;;4.25;1.80;;;10.50;99.90;;;;;;4898800;29;20171;-88
2022/09/19 06:53:09;;;;;;;5.07;1.60;;;10.60;99.90;;;;;;4881892;29;20584;-89
2022/09/19 06:55:35;;;;;;;8.35;1.80;;;10.60;99.90;;;;;;4881626;29;20243;-88
2022/09/19 06:58:03;;;;;;;7.68;1.92;;;10.60;99.90;;;;;;4881856;29;20203;-87
2022/09/19 07:00:32;;;;;;;5.10;1.52;;;10.60;99.90;;;;;;4898661;29;20167;-87
2022/09/19 07:03:00;;;;;;;6.53;1.38;;;10.70;99.90;;;;;;4881762;29;20204;-87
2022/09/19 07:05:27;;;;;;;6.93;1.33;;;10.70;99.90;;;;;;4898265;29;20191;-87
2022/09/19 07:07:53;;;;;;;3.80;1.70;;;10.80;99.90;;;;;;4898439;29;20516;-87
2022/09/19 07:10:20;;;;;;;5.90;1.48;;;10.90;99.90;;;;;;4881672;29;20182;-89
2022/09/19 07:12:55;;;;;;;7.90;1.70;;;10.90;99.90;;;;;;4881945;29;20181;-88
2022/09/19 07:15:21;;;;;;;3.92;1.50;;;11.00;99.90;;;;;;4897709;29;20230;-88
2022/09/19 07:17:56;;;;;;;7.38;1.67;;;11.10;99.90;;;;;;4898504;29;20167;-90
2022/09/19 07:20:23;;;;;;;7.47;1.50;;;11.10;99.90;;;;;;4881568;29;20243;-89
2022/09/19 07:23:10;;;;;;;5.10;1.75;;;11.10;99.90;;;;;;4881220;29;20231;-88
2022/09/19 07:25:37;;;;;;;7.30;1.63;;;11.10;99.90;;;;;;4880361;29;20290;-88
2022/09/19 07:28:06;;;;;;;9.32;1.65;;;11.10;99.90;;;;;;4881307;29;20179;-88
2022/09/19 07:30:34;;;;;;;6.25;1.42;;;11.20;99.90;;;;;;4881082;29;20182;-88
2022/09/19 07:33:01;;;;;;;10.98;1.40;;;11.20;99.90;;;;;;4881354;29;20187;-88
2022/09/19 07:35:29;;;;;;;5.78;1.20;;;11.30;99.90;;;;;;4880983;29;20207;-89
2022/09/19 07:37:56;;;;;;;7.53;1.30;;;11.30;99.90;;;;;;4881439;29;20183;-89
2022/09/19 07:40:23;;;;;;;6.20;1.08;;;11.40;99.90;;;;;;4897953;29;20199;-88
2022/09/19 07:43:01;;;;;;;6.70;1.25;;;11.50;99.90;;;;;;4880934;29;20195;-86
2022/09/19 07:45:27;;;;;;;4.75;1.10;;;11.60;99.90;;;;;;4902965;29;20205;-88
2022/09/19 07:47:55;;;;;;;6.22;1.00;;;11.60;99.90;;;;;;4918461;29;20178;-89
2022/09/19 07:50:21;;;;;;;14.95;1.40;;;11.70;99.90;;;;;;4918380;29;20186;-87
2022/09/19 07:52:47;;;;;;;7.35;1.38;;;11.70;99.90;;;;;;4918957;29;20193;-87
2022/09/19 07:55:13;;;;;;;7.60;1.80;;;11.80;99.90;;;;;;4918504;29;20214;-88
2022/09/19 07:57:52;;;;;;;4.70;1.08;;;11.90;99.90;;;;;;4918568;29;20192;-88
2022/09/19 08:00:18;;;;;;;4.95;1.00;;;12.00;99.90;;;;;;4918658;29;20189;-88
2022/09/19 08:02:53;;;;;;;7.88;1.45;;;11.90;99.90;;;;;;4935581;29;20672;-88
2022/09/19 08:05:19;;;;;;;5.72;1.20;;;12.00;99.90;;;;;;4918419;29;20202;-88
2022/09/19 08:07:45;;;;;;;3.95;1.10;;;12.10;99.90;;;;;;4918843;29;20186;-89
2022/09/19 08:10:11;;;;;;;4.60;1.05;;;12.10;99.90;;;;;;4918577;29;20189;-87
2022/09/19 08:12:37;;;;;;;6.35;1.30;;;12.20;99.90;;;;;;4918528;29;20181;-89
2022/09/19 08:15:04;;;;;;;8.73;1.92;;;12.20;99.90;;;;;;4918361;29;20240;-88
2022/09/19 08:17:30;;;;;;;3.08;1.30;;;12.20;99.90;;;;;;4918910;29;20197;-88
2022/09/19 08:19:56;;;;;;;8.93;1.77;;;12.10;99.90;;;;;;4918881;29;20182;-89
2022/09/19 08:22:23;;;;;;;11.98;1.60;;;12.10;99.90;;;;;;4918638;29;20182;-89
2022/09/19 08:24:49;;;;;;;6.50;1.60;;;12.10;99.90;;;;;;4918498;29;20194;-89
2022/09/19 08:27:14;;;;;;;7.53;1.65;;;12.20;99.90;;;;;;4918518;29;20534;-89
2022/09/19 08:29:46;;;;;;;6.63;1.42;;;12.20;99.90;;;;;;4918521;29;20635;-89
2022/09/19 08:32:11;;;;;;;5.53;1.27;;;12.20;99.90;;;;;;4918581;29;20230;-89
2022/09/19 08:34:37;;;;;;;12.60;2.17;;;12.20;99.90;;;;;;4935628;29;20194;-90
2022/09/19 08:37:04;;;;;;;7.57;1.63;;;12.20;99.90;;;;;;4935205;29;20160;-89
2022/09/19 08:39:29;;;;;;;7.05;1.55;;;12.30;99.90;;;;;;4935260;29;20690;-88
2022/09/19 08:42:00;;;;;;;7.35;1.60;;;12.30;99.90;;;;;;4918304;29;20190;-88
2022/09/19 08:44:51;;;;;;;7.95;1.80;;;12.40;99.90;;;;;;4918044;29;20213;-90
2022/09/19 08:47:21;;;;;;;7.50;1.50;;;12.60;99.90;;;;;;4918402;29;20545;-89
2022/09/19 08:50:03;;;;;;;8.35;1.83;;;12.80;99.90;;;;;;4918367;29;20178;-89
2022/09/19 08:52:38;;;;;;;7.85;1.65;;;12.90;99.90;;;;;;4918487;29;20281;-88
2022/09/19 08:55:10;;;;;;;10.77;2.28;;;13.00;99.90;;;;;;4935454;29;20189;-87
2022/09/19 08:57:54;;;;;;;5.35;1.33;;;13.20;99.90;;;;;;4918611;29;20213;-90
2022/09/19 09:00:23;;;;;;;5.93;1.50;;;13.30;99.90;;;;;;4918134;29;20272;-89
2022/09/19 09:02:54;;;;;;;7.90;1.67;;;13.50;99.90;;;;;;4918631;29;20253;-89
2022/09/19 09:05:44;;;;;;;10.10;1.83;;;13.70;99.90;;;;;;4918804;29;20201;-88
2022/09/19 09:08:30;;;;;;;7.63;2.00;;;13.90;99.90;;;;;;4918873;29;20178;-88
2022/09/19 09:11:22;;;;;;;9.95;1.98;;;14.00;99.90;;;;;;4935732;29;20159;-89
2022/09/19 09:14:26;;;;;;;8.88;1.83;;;14.00;99.90;;;;;;4918474;29;20677;-89
2022/09/19 09:17:23;;;;;;;7.97;1.50;;;14.00;99.90;;;;;;4918824;29;20186;-89
2022/09/19 09:19:49;;;;;;;8.93;1.67;;;14.00;99.90;;;;;;4918523;29;20174;-87
2022/09/19 09:22:36;;;;;;;11.18;2.55;;;14.00;99.90;;;;;;4918260;29;20186;-89
2022/09/19 09:25:08;;;;;;;9.68;2.13;;;14.00;99.90;;;;;;4917793;29;20218;-88
2022/09/19 09:27:48;;;;;;;10.05;2.47;;;14.00;99.90;;;;;;4918118;29;20170;-88
2022/09/19 09:30:19;;;;;;;15.55;2.15;;;14.10;99.90;;;;;;4935272;29;20206;-88
2022/09/19 09:32:56;;;;;;;13.50;2.30;;;14.20;99.90;;;;;;4918366;29;20193;-88
2022/09/19 09:35:41;;;;;;;11.55;1.77;;;14.30;99.90;;;;;;4918148;29;20618;-88
2022/09/19 09:38:34;;;;;;;11.05;2.22;;;14.40;99.90;;;;;;4935492;29;20226;-89
2022/09/19 09:44:07;;;;;;;6.95;1.67;;;14.40;99.90;;;;;;4932478;29;20230;-89
2022/09/19 09:47:01;;;;;;;8.32;1.55;;;14.40;99.90;;;;;;4899427;29;20185;-89
2022/09/19 09:49:29;;;;;;;9.20;1.65;;;14.50;99.90;;;;;;4869665;29;20541;-89
2022/09/19 09:52:20;;;;;;;16.50;2.20;;;14.60;99.90;;;;;;4902935;29;20179;-90
2022/09/19 09:57:54;;;;;;;9.23;1.80;;;14.80;99.90;;;;;;4919700;29;20182;-89
2022/09/19 10:03:34;;;;;;;5.53;1.15;;;15.00;99.90;;;;;;4919713;29;20660;-89
2022/09/19 10:06:18;;;;;;;6.93;1.50;;;15.00;99.90;;;;;;4902710;29;20206;-90
2022/09/19 10:09:01;;;;;;;7.95;1.40;;;15.00;99.90;;;;;;4902238;29;20183;-88
2022/09/19 10:11:52;;;;;;;8.57;1.88;;;15.10;99.90;;;;;;4902764;29;20547;-88
2022/09/19 10:14:23;;;;;;;5.32;1.50;;;15.10;99.90;;;;;;4902207;29;20267;-88
2022/09/19 10:16:53;;;;;;;6.20;1.55;;;15.10;99.90;;;;;;4902387;29;20210;-88
2022/09/19 10:19:42;;;;;;;8.65;1.55;;;15.00;99.90;;;;;;4902334;29;20189;-89
2022/09/19 10:22:14;;;;;;;7.18;1.50;;;15.10;99.90;;;;;;4902467;29;20238;-89
2022/09/19 10:24:53;;;;;;;12.45;1.92;;;15.20;99.90;;;;;;4902073;29;20230;-90
2022/09/19 10:27:26;;;;;;;8.98;1.60;;;15.40;99.90;;;;;;4918978;29;20181;-89
2022/09/19 10:29:58;;;;;;;11.73;1.92;;;15.40;99.90;;;;;;4902272;29;20230;-89
2022/09/19 10:32:27;;;;;;;6.47;2.05;;;15.40;99.90;;;;;;4902214;29;20189;-90
2022/09/19 10:34:53;;;;;;;9.82;1.83;;;15.30;99.90;;;;;;4901882;29;20203;-89
2022/09/19 10:37:26;;;;;;;12.27;2.33;;;15.30;99.90;;;;;;4902180;29;20190;-89
2022/09/19 10:39:51;;;;;;;10.00;1.88;;;15.30;99.90;;;;;;4901960;29;20189;-89
2022/09/19 10:42:41;;;;;;;4.53;1.25;;;15.30;99.90;;;;;;4901986;29;20175;-89
2022/09/19 10:45:26;;;;;;;9.80;1.70;;;15.30;99.90;;;;;;4901896;29;20671;-89
2022/09/19 10:48:01;;;;;;;8.82;1.38;;;15.50;99.90;;;;;;4901936;29;20182;-89
2022/09/19 10:50:28;;;;;;;18.92;2.13;;;15.50;99.90;;;;;;4901552;29;20178;-90
2022/09/19 10:53:04;;;;;;;7.75;1.65;;;15.50;99.90;;;;;;4901296;29;20286;-89
2022/09/19 10:55:36;;;;;;;5.22;1.40;;;15.40;99.90;;;;;;4901526;29;20273;-88
2022/09/19 10:58:06;;;;;;;6.85;1.70;;;15.20;99.90;;;;;;4901403;29;20221;-89
2022/09/19 11:00:58;;;;;;;10.45;1.48;;;15.00;99.90;;;;;;4901317;29;20183;-88
2022/09/19 11:03:30;;;;;;;11.13;1.85;;;14.90;99.90;;;;;;4900871;29;20238;-88
2022/09/19 11:06:05;;;;;;;5.72;1.98;;;14.70;99.90;;;;;;4900781;29;20663;-88
2022/09/19 11:08:42;;;;;;;10.30;2.67;;;14.60;99.90;;;;;;4901030;29;20591;-87
2022/09/19 11:11:45;;;;;;;15.27;2.67;;;14.50;99.90;;;;;;4899871;29;20545;-87
2022/09/19 11:14:11;;;;;;;9.10;1.48;;;14.30;99.90;;;;;;4900391;29;20226;-87
2022/09/19 11:16:45;;;;;;;6.15;1.58;;;14.10;99.90;;;;;;4900513;29;20270;-88
2022/09/19 11:19:26;;;;;;;3.80;1.30;;;14.00;99.90;;;;;;4900315;29;20186;-86
2022/09/19 11:22:07;;;;;;;4.38;1.08;;;13.80;99.90;;;;;;4900271;29;20218;-87
2022/09/19 11:24:47;;;;;;;8.38;1.58;;;13.70;99.90;;;;;;4899747;29;20226;-88
2022/09/19 11:27:39;;;;;;;7.50;1.30;;;13.70;99.90;;;;;;4900098;29;20183;-86
2022/09/19 11:30:18;;;;;;;6.70;1.15;;;13.80;99.90;;;;;;4899851;29;20207;-88
2022/09/19 11:33:02;;;;;;;8.32;2.47;;;13.90;99.90;;;;;;4899874;29;20190;-86
2022/09/19 11:35:42;;;;;;;7.90;1.83;;;14.20;99.90;;;;;;4899978;29;20199;-86
2022/09/19 11:38:12;;;;;;;7.38;1.38;;;14.30;99.90;;;;;;4900000;29;20214;-87
2022/09/19 11:40:56;;;;;;;6.72;1.75;;;14.40;99.90;;;;;;4916740;29;20194;-88
2022/09/19 11:43:26;;;;;;;5.72;1.55;;;14.40;99.90;;;;;;4899904;29;20209;-89
2022/09/19 11:45:56;;;;;;;6.40;1.42;;;14.30;99.90;;;;;;4899507;29;20214;-88
2022/09/19 11:48:45;;;;;;;4.45;1.02;;;14.10;99.90;;;;;;4899959;29;20236;-87
2022/09/19 11:51:26;;;;;;;7.10;1.17;;;14.00;99.90;;;;;;4899843;29;20220;-88
2022/09/19 11:53:51;;;;;;;4.55;1.30;;;14.00;99.90;;;;;;4899699;29;20182;-86
2022/09/19 11:56:42;;;;;;;6.60;1.30;;;14.10;99.90;;;;;;4899718;29;20614;-87
2022/09/19 11:59:45;;;;;;;6.20;1.80;;;14.10;99.90;;;;;;4899327;29;20639;-87
2022/09/19 12:02:33;;;;;;;9.57;1.60;;;14.20;99.90;;;;;;4899377;29;20183;-87
2022/09/19 12:05:18;;;;;;;5.28;1.27;;;14.30;99.90;;;;;;4916255;29;20198;-87
2022/09/19 12:07:44;;;;;;;5.63;1.80;;;14.40;99.90;;;;;;4899706;29;20179;-87
2022/09/19 12:10:25;;;;;;;5.90;1.27;;;14.40;99.90;;;;;;4899115;29;20780;-86
2022/09/19 12:13:26;;;;;;;4.85;1.00;;;14.40;99.90;;;;;;4898845;29;20189;-86
2022/09/19 12:16:08;;;;;;;4.82;1.13;;;14.30;99.90;;;;;;4855983;29;20703;-87
2022/09/19 12:18:55;;;;;;;6.03;1.42;;;14.20;99.90;;;;;;4880508;29;20183;-87
2022/09/19 12:21:23;;;;;;;5.50;1.20;;;14.10;99.90;;;;;;4880667;29;20175;-86
2022/09/19 12:26:53;;;;;;;3.22;0.98;;;14.00;99.90;;;;;;4897348;29;20645;-87
2022/09/19 12:29:24;;;;;;;4.90;0.65;;;13.80;99.90;;;;;;4897372;29;20167;-88
2022/09/19 12:31:58;;;;;;;4.15;1.55;;;13.70;99.90;;;;;;4880072;29;20256;-87
2022/09/19 12:34:36;;;;;;;3.25;0.90;;;13.60;99.90;;;;;;4880590;29;20210;-86
2022/09/19 12:37:17;;;;;;;5.05;1.08;;;13.50;99.90;;;;;;4880079;29;20209;-87
2022/09/19 12:40:26;;;;;;;8.05;1.10;;;13.10;99.90;;;;;;4880152;29;20179;-88
2022/09/19 12:43:23;;;;;;;4.90;1.13;;;12.80;99.90;;;;;;4831358;29;20218;-89
2022/09/19 12:45:58;;;;;;;1.33;0.60;;;12.30;99.90;;;;;;4833202;29;20337;-87
2022/09/19 12:48:37;;;;;;;3.75;0.70;;;12.10;99.90;;;;;;4917929;29;20180;-87
2022/09/19 12:51:06;;;;;;;4.20;0.80;;;12.00;99.90;;;;;;4917618;29;20177;-87
2022/09/19 12:53:55;;;;;;;4.28;0.50;;;11.80;99.90;;;;;;4917572;29;20184;-90
2022/09/19 12:56:40;;;;;;;3.85;0.75;;;11.70;99.90;;;;;;4917580;29;20252;-89
2022/09/19 12:59:23;;;;;;;3.15;0.60;;;11.60;99.90;;;;;;4917191;29;20237;-87
2022/09/19 13:01:57;;;;;;;2.78;0.52;;;11.50;99.90;;;;;;4917214;29;20272;-88
2022/09/19 13:04:30;;;;;;;2.42;0.57;;;11.50;99.90;;;;;;4917097;29;20213;-87
2022/09/19 13:07:03;;;;;;;1.60;0.40;;;11.40;99.90;;;;;;4934657;29;20158;-88
2022/09/19 13:09:37;;;;;;;2.60;0.50;;;11.50;99.90;;;;;;4917390;29;20178;-88
2022/09/19 13:12:21;;;;;;;3.67;0.70;;;11.50;99.90;;;;;;4917552;29;20724;-88
2022/09/19 13:15:02;;;;;;;1.65;0.40;;;11.50;99.90;;;;;;4934428;29;20663;-88
2022/09/19 13:25:55;;;;;;;2.15;0.68;;;11.60;99.90;;;;;;4938052;29;20213;-87
2022/09/19 13:28:21;;;;;;;2.05;0.50;;;11.70;99.90;;;;;;4920667;29;20177;-88
2022/09/19 13:31:04;;;;;;;3.25;0.70;;;11.70;99.90;;;;;;4920677;29;20170;-87
2022/09/19 13:33:50;;;;;;;3.35;0.60;;;11.80;99.90;;;;;;4937861;29;20170;-86
2022/09/19 13:36:24;;;;;;;4.53;0.73;;;11.90;99.90;;;;;;4920860;29;20250;-87
2022/09/19 13:38:56;;;;;;;1.48;0.47;;;11.90;99.90;;;;;;4921392;29;20182;-87
2022/09/19 13:41:42;;;;;;;2.80;0.73;;;12.00;99.90;;;;;;4920917;29;20178;-88
2022/09/19 13:44:29;;;;;;;4.95;0.50;;;12.00;99.90;;;;;;4916421;29;20289;-88
2022/09/19 13:47:07;;;;;;;2.67;0.80;;;12.10;99.90;;;;;;4902023;29;20175;-87
2022/09/19 13:49:51;;;;;;;1.45;0.52;;;12.20;99.90;;;;;;4901823;29;20182;-87
2022/09/19 13:52:31;;;;;;;2.75;0.60;;;12.30;99.90;;;;;;4901852;29;20205;-88